createdAt,value
2022-12-11T00:03:47.977Z,57.03
2022-12-11T00:08:53.357Z,60.40
2022-12-11T00:13:54.555Z,49.55
2022-12-11T00:18:55.335Z,45.28
2022-12-11T00:23:56.089Z,45.65
2022-12-11T00:28:56.850Z,52.42
2022-12-11T00:33:57.658Z,62.17
2022-12-11T00:38:58.939Z,48.92
2022-12-11T00:43:59.917Z,52.97
2022-12-11T00:49:01.274Z,57.47
2022-12-11T00:54:03.179Z,47.78
2022-12-11T00:59:03.973Z,46.88
2022-12-11T01:04:05.016Z,45.60
2022-12-11T01:09:24.311Z,38.00
2022-12-11T01:14:26.258Z,40.25
2022-12-11T01:19:27.771Z,41.15
2022-12-11T01:24:28.665Z,38.67
2022-12-11T01:29:29.776Z,37.88
2022-12-11T01:34:32.534Z,54.03
2022-12-11T01:39:33.263Z,37.13
2022-12-11T01:46:08.592Z,38.72
2022-12-11T01:51:09.613Z,45.38
2022-12-11T01:56:10.737Z,42.75
2022-12-11T02:01:17.754Z,40.42
2022-12-11T02:06:40.039Z,42.90
2022-12-11T02:13:01.214Z,42.85
2022-12-11T02:21:18.045Z,36.88
2022-12-11T02:28:06.545Z,45.83
2022-12-11T02:33:12.102Z,42.30
2022-12-11T02:38:27.917Z,25.08
2022-12-11T02:43:32.420Z,32.42
2022-12-11T02:48:35.727Z,33.60
2022-12-11T02:53:40.681Z,33.70
2022-12-11T02:58:53.932Z,36.90
2022-12-11T03:03:58.073Z,39.47
2022-12-11T03:08:58.957Z,38.50
2022-12-11T03:14:02.119Z,36.13
2022-12-11T03:25:21.341Z,38.25
2022-12-11T03:30:24.166Z,41.67
2022-12-11T03:35:36.448Z,36.55
2022-12-11T03:40:42.451Z,49.00
2022-12-11T03:45:46.206Z,42.33
2022-12-11T03:50:47.973Z,46.55
2022-12-11T03:55:51.109Z,41.20
2022-12-11T04:05:54.954Z,35.70
2022-12-11T04:16:15.165Z,46.10
2022-12-11T04:21:39.516Z,45.20
2022-12-11T04:26:42.308Z,45.17
2022-12-11T04:31:43.002Z,42.87
2022-12-11T04:36:44.073Z,40.88
2022-12-11T04:41:44.875Z,48.42
2022-12-11T04:46:45.722Z,49.92
2022-12-11T04:51:46.503Z,44.88
2022-12-11T04:56:47.509Z,48.55
2022-12-11T05:01:48.484Z,40.40
2022-12-11T05:06:51.053Z,42.20
2022-12-11T05:11:53.035Z,41.00
2022-12-11T05:16:53.757Z,45.15
2022-12-11T05:21:54.528Z,48.30
2022-12-11T05:26:55.397Z,43.78
2022-12-11T05:31:56.214Z,45.83
2022-12-11T05:36:56.929Z,43.20
2022-12-11T05:41:57.766Z,42.15
2022-12-11T05:46:58.800Z,37.28
2022-12-11T05:51:59.596Z,46.83
2022-12-11T05:57:00.329Z,45.50
2022-12-11T06:02:01.455Z,50.78
2022-12-11T06:07:02.703Z,40.45
2022-12-11T06:12:03.844Z,50.28
2022-12-11T06:17:04.598Z,49.47
2022-12-11T06:22:05.374Z,40.05
2022-12-11T06:27:06.130Z,40.95
2022-12-11T06:32:07.075Z,41.47
2022-12-11T06:37:07.819Z,40.50
2022-12-11T06:42:08.856Z,46.88
2022-12-11T06:47:09.907Z,40.65
2022-12-11T06:52:15.025Z,39.63
2022-12-11T06:57:19.714Z,44.17
2022-12-11T07:02:20.631Z,41.35
2022-12-11T07:07:21.705Z,43.63
2022-12-11T07:12:22.701Z,40.20
2022-12-11T07:17:23.471Z,38.72
2022-12-11T07:22:24.201Z,35.67
2022-12-11T07:27:24.971Z,45.60
2022-12-11T07:32:25.861Z,40.50
2022-12-11T07:37:27.260Z,53.83
2022-12-11T07:42:28.094Z,41.80
2022-12-11T07:47:28.851Z,47.35
2022-12-11T07:52:29.591Z,38.75
2022-12-11T07:57:30.368Z,41.60
2022-12-11T08:02:36.778Z,44.20
2022-12-11T08:07:38.479Z,46.33
2022-12-11T08:12:39.315Z,44.78
2022-12-11T08:17:40.432Z,48.55
2022-12-11T08:22:41.250Z,42.13
2022-12-11T08:27:42.016Z,41.90
2022-12-11T08:32:42.768Z,44.10
2022-12-11T08:37:43.571Z,49.00
2022-12-11T08:42:44.427Z,50.67
2022-12-11T08:47:45.447Z,40.20
2022-12-11T08:52:46.359Z,40.58
2022-12-11T08:57:47.122Z,54.67
2022-12-11T09:02:47.956Z,54.00
2022-12-11T09:07:49.073Z,55.88
2022-12-11T09:12:50.250Z,51.33
2022-12-11T09:17:50.994Z,46.88
2022-12-11T09:22:51.869Z,42.53
2022-12-11T09:27:52.942Z,42.62
2022-12-11T09:32:53.694Z,50.20
2022-12-11T09:37:54.502Z,49.00
2022-12-11T09:43:02.527Z,47.33
2022-12-11T09:48:03.404Z,44.95
2022-12-11T09:53:16.826Z,50.55
2022-12-11T10:00:31.651Z,43.50
2022-12-11T10:14:05.949Z,49.67
2022-12-11T10:20:19.997Z,48.63
2022-12-11T10:26:11.888Z,49.45
2022-12-11T10:31:19.464Z,44.85
2022-12-11T10:36:26.700Z,52.05
2022-12-11T10:41:38.474Z,51.75
2022-12-11T10:46:39.280Z,48.28
2022-12-11T10:51:40.477Z,49.65
2022-12-11T10:56:46.562Z,47.88
2022-12-11T11:01:47.506Z,84.80
2022-12-11T11:06:49.119Z,121.50
2022-12-11T11:11:50.369Z,66.53
2022-12-11T11:16:56.479Z,56.22
2022-12-11T11:22:02.304Z,49.47
2022-12-11T11:27:13.846Z,55.10
2022-12-11T11:32:38.020Z,75.37
2022-12-11T11:37:42.401Z,90.45
2022-12-11T11:42:55.869Z,59.38
2022-12-11T11:48:26.506Z,54.17
2022-12-11T11:53:36.571Z,56.70
2022-12-11T11:58:47.351Z,56.45
2022-12-11T12:03:49.021Z,61.05
2022-12-11T12:10:51.623Z,61.50
2022-12-11T12:15:58.360Z,50.38
2022-12-11T12:21:11.709Z,56.17
2022-12-11T12:26:35.065Z,69.43
2022-12-11T12:31:59.669Z,84.60
2022-12-11T12:38:32.181Z,59.97
2022-12-11T12:46:18.826Z,53.55
2022-12-11T12:51:20.690Z,51.85
2022-12-11T12:56:22.736Z,55.17
2022-12-11T13:01:25.842Z,59.13
2022-12-11T13:06:37.338Z,56.08
2022-12-11T13:11:38.216Z,59.88
2022-12-11T13:16:47.348Z,60.03
2022-12-11T13:22:40.268Z,84.13
2022-12-11T13:27:42.921Z,66.40
2022-12-11T13:33:07.225Z,63.97
2022-12-11T13:38:21.998Z,63.15
2022-12-11T13:43:27.062Z,63.30
2022-12-11T13:52:00.981Z,63.40
2022-12-11T13:57:29.553Z,63.72
2022-12-11T14:02:41.592Z,56.25
2022-12-11T14:07:47.847Z,58.70
2022-12-11T14:14:26.514Z,76.68
2022-12-11T14:19:28.430Z,88.75
2022-12-11T14:24:30.872Z,70.40
2022-12-11T14:29:32.892Z,67.70
2022-12-11T14:34:43.559Z,63.13
2022-12-11T14:39:54.279Z,67.25
2022-12-11T14:45:07.047Z,75.18
2022-12-11T14:50:20.628Z,68.50
2022-12-11T14:55:27.807Z,71.37
2022-12-11T15:00:35.250Z,69.70
2022-12-11T15:05:52.147Z,57.42
2022-12-11T15:11:11.963Z,62.00
2022-12-11T15:16:14.122Z,64.82
2022-12-11T15:21:15.946Z,61.90
2022-12-11T15:26:17.552Z,62.70
2022-12-11T15:31:28.258Z,64.32
2022-12-11T15:36:36.172Z,62.13
2022-12-11T15:41:37.123Z,70.55
2022-12-11T15:46:38.030Z,66.00
2022-12-11T15:51:42.883Z,68.62
2022-12-11T15:56:44.285Z,64.45
2022-12-11T16:01:45.185Z,67.20
2022-12-11T16:06:46.507Z,73.12
2022-12-11T16:11:47.903Z,64.93
2022-12-11T16:16:48.668Z,74.00
2022-12-11T16:21:49.378Z,62.22
2022-12-11T16:26:50.811Z,75.53
2022-12-11T16:31:51.930Z,135.57
2022-12-11T16:36:54.694Z,86.15
2022-12-11T16:41:55.409Z,193.93
2022-12-11T16:46:57.601Z,83.75
2022-12-11T16:51:58.525Z,63.40
2022-12-11T16:56:59.294Z,71.90
2022-12-11T17:02:00.071Z,77.57
2022-12-11T17:07:01.331Z,82.47
2022-12-11T17:12:02.478Z,69.70
2022-12-11T17:17:03.285Z,62.95
2022-12-11T17:22:04.262Z,67.57
2022-12-11T17:27:05.025Z,68.68
2022-12-11T17:32:06.146Z,79.22
2022-12-11T17:37:07.657Z,81.68
2022-12-11T17:42:08.424Z,87.95
2022-12-11T17:47:11.457Z,84.20
2022-12-11T17:52:12.440Z,84.75
2022-12-11T17:57:13.239Z,81.12
2022-12-11T18:02:14.072Z,77.85
2022-12-11T18:07:15.460Z,87.35
2022-12-11T18:12:16.227Z,77.22
2022-12-11T18:17:18.188Z,84.03
2022-12-11T18:22:19.085Z,87.57
2022-12-11T18:27:19.858Z,91.60
2022-12-11T18:32:20.576Z,80.03
2022-12-11T18:37:27.572Z,80.18
2022-12-11T18:42:33.410Z,73.95
2022-12-11T18:47:34.967Z,88.10
2022-12-11T18:52:35.698Z,80.20
2022-12-11T18:57:36.487Z,78.28
2022-12-11T19:02:37.226Z,83.93
2022-12-11T19:07:38.176Z,80.47
2022-12-11T19:12:39.245Z,75.28
2022-12-11T19:17:42.120Z,74.82
2022-12-11T19:22:42.835Z,80.45
2022-12-11T19:27:46.056Z,79.97
2022-12-11T19:37:48.037Z,76.62
2022-12-11T19:42:48.784Z,85.10
2022-12-11T19:47:49.702Z,81.45
2022-12-11T19:52:50.450Z,82.80
2022-12-11T19:57:51.216Z,75.37
2022-12-11T20:02:51.934Z,79.18
2022-12-11T20:07:52.894Z,78.30
2022-12-11T20:12:58.326Z,91.30
2022-12-11T20:18:00.410Z,83.87
2022-12-11T20:23:02.677Z,84.68
2022-12-11T20:28:03.696Z,77.18
2022-12-11T20:33:04.479Z,83.45
2022-12-11T20:38:05.552Z,78.90
2022-12-11T20:43:06.594Z,80.45
2022-12-11T20:48:08.334Z,85.93
2022-12-11T20:53:09.270Z,82.40
2022-12-11T20:58:10.067Z,85.57
2022-12-11T21:03:10.806Z,80.53
2022-12-11T21:08:12.310Z,79.78
2022-12-11T21:13:13.173Z,88.05
2022-12-11T21:18:14.302Z,87.18
2022-12-11T21:23:15.035Z,81.53
2022-12-11T21:28:15.822Z,77.70
2022-12-11T21:33:16.839Z,79.78
2022-12-11T21:38:18.022Z,92.65
2022-12-11T21:43:19.351Z,85.25
2022-12-11T21:48:20.235Z,79.45
2022-12-11T21:53:20.981Z,85.57
2022-12-11T21:58:21.766Z,86.55
2022-12-11T22:03:22.496Z,78.07
2022-12-11T22:08:23.479Z,87.00
2022-12-11T22:13:27.654Z,83.62
2022-12-11T22:18:29.161Z,91.93
2022-12-11T22:23:30.476Z,84.85
2022-12-11T22:28:31.279Z,86.22
2022-12-11T22:33:32.023Z,90.78
2022-12-11T22:38:33.879Z,96.80
2022-12-11T22:43:34.623Z,83.85
2022-12-11T22:48:35.775Z,97.70
2022-12-11T22:53:36.690Z,87.53
2022-12-11T22:58:38.149Z,82.57
2022-12-11T23:03:39.201Z,87.90
2022-12-11T23:08:41.603Z,83.47
2022-12-11T23:13:42.960Z,95.47
2022-12-11T23:18:44.055Z,91.03
2022-12-11T23:23:45.565Z,89.15
2022-12-11T23:28:46.827Z,86.15
2022-12-11T23:33:47.806Z,78.22
2022-12-11T23:38:54.298Z,79.32
2022-12-11T23:43:55.746Z,82.95
2022-12-11T23:48:56.838Z,84.82
2022-12-11T23:53:57.606Z,86.50
2022-12-11T23:58:58.743Z,82.40
